Preston, MN

7:34 AM CDT on September 22, 2014 (GMT -0500)
Preston | Change Station
CLOSE
Current Station
Airport
Location: Preston,
Elevation: 1276 ft
Nearby Weather Stations
Active Advisory: Special Statement

Elev 1276 ft 43.68 °N, 92.17 °W | Updated 19 minutes ago

Clear
Clear
44 °F
Feels Like 44 °F
N
0
Wind Variable Wind from North

Today
High -- | Low -- °F
--% Chance of Precip.
Yesterday
High -- | Low -- °F
Precip. -- in
6:55 AM 7:05 PM
Waning Crescent, 3% visible
Pressure 30.28 in
Visibility 10.0 miles
Clouds Clear
Dew Point 44 °F
Humidity 100%
Rainfall 0.00 in
Snow Depth Not available.
UV 0 out of 12
Pollen 3.00 out of 12
Air Quality Not available.
Flu Activity Not available.
METAR KFKA 221215Z AUTO 00000KT 10SM CLR 07/07 A3028 RMK AO2 T00650065

More Conditions Fewer Conditions

Pressure 30.28 in
Visibility 10.0 miles
Clouds Clear
Dew Point 44 °F
Humidity 100%
Rainfall 0.00 in
Snow Depth Not available.
UV 0 out of 12
Pollen 3.00 out of 12
Air Quality Not available.
Flu Activity Not available.
METAR KFKA 221215Z AUTO 00000KT 10SM CLR 07/07 A3028 RMK AO2 T00650065

More Conditions Fewer Conditions

10-Day Weather Forecast

Almanac

Astronomy

Sep. 22, 2014 Rise Set
Actual Time 6:55 AM CDT 7:05 PM CDT
Civil Twilight 6:26 AM CDT 7:34 PM CDT
Nautical Twilight 5:53 AM CDT 8:07 PM CDT
Astronomical Twilight 5:18 AM CDT 8:42 PM CDT
Moon 5:22 AM CDT 6:14 PM CDT
Length of Visible Light 13h 07m
Length of Day
12h 10m
Tomorrow will be 2m 58s shorter.
Waning Crescent, 3% of the Moon is Illuminated
Today
Waning Crescent
Sep 24
New
Oct 1
First Quarter
Oct 8
Full
Oct 15
Last Quarter

Today's Extremes

State Highs State Lows

Community

WunderPhotos

Upload Photos

1,755,420 photos uploaded!

Nearby

Snow Depth

Station Depth Elevation
No new snow has been reported.

Earthquake Activity

City Distance Mag. Time & Date
No recent earthquake activity has been reported nearby.
Minimum magnitude displayed is 2.5.

Coastal Water Temperatures

Place Temperature
No Stations Reporting

Nearby Weather Stations